createdAt,value
2018-09-18T00:00:29.639Z,5.10
2018-09-18T00:03:02.467Z,5.00
2018-09-18T00:05:35.096Z,4.55
2018-09-18T00:08:07.910Z,4.37
2018-09-18T00:10:40.869Z,4.10
2018-09-18T00:13:13.597Z,5.12
2018-09-18T00:15:46.395Z,4.70
2018-09-18T00:18:19.151Z,5.20
2018-09-18T00:20:52.120Z,5.20
2018-09-18T00:23:24.992Z,6.05
2018-09-18T00:25:59.766Z,6.10
2018-09-18T00:28:32.616Z,5.90
2018-09-18T00:31:05.681Z,5.45
2018-09-18T00:33:38.565Z,6.35
2018-09-18T00:36:11.473Z,6.62
2018-09-18T00:38:44.264Z,8.50
2018-09-18T00:41:20.475Z,6.75
2018-09-18T00:43:56.133Z,7.47
2018-09-18T00:46:32.263Z,8.30
2018-09-18T00:49:04.976Z,8.75
2018-09-18T00:51:37.894Z,8.10
2018-09-18T00:54:12.922Z,8.60
2018-09-18T00:56:47.376Z,9.18
2018-09-18T00:59:20.344Z,9.55
2018-09-18T01:01:53.133Z,10.63
2018-09-18T01:04:26.042Z,11.10
2018-09-18T01:06:58.770Z,11.50
2018-09-18T01:09:33.273Z,14.07
2018-09-18T01:12:06.287Z,13.62
2018-09-18T01:14:42.048Z,13.95
2018-09-18T01:17:14.836Z,15.20
2018-09-18T01:19:47.737Z,14.50
2018-09-18T01:22:20.575Z,13.35
2018-09-18T01:24:54.325Z,13.93
2018-09-18T01:27:27.768Z,12.13
2018-09-18T01:30:00.674Z,13.20
2018-09-18T01:32:42.959Z,13.00
2018-09-18T01:35:15.763Z,13.88
2018-09-18T01:37:49.280Z,14.58
2018-09-18T01:40:22.156Z,13.98
2018-09-18T01:42:55.622Z,14.93
2018-09-18T01:45:31.122Z,13.90
2018-09-18T01:48:03.949Z,12.63
2018-09-18T01:50:39.000Z,13.30
2018-09-18T01:53:11.912Z,13.43
2018-09-18T01:55:45.560Z,14.15
2018-09-18T01:58:18.609Z,13.60
2018-09-18T02:00:54.720Z,14.33
2018-09-18T02:03:27.309Z,14.03
2018-09-18T02:05:59.950Z,13.68
2018-09-18T02:08:32.533Z,12.60
2018-09-18T02:11:05.175Z,13.65
2018-09-18T02:13:37.901Z,13.75
2018-09-18T02:16:10.563Z,12.95
2018-09-18T02:18:43.272Z,13.45
2018-09-18T02:21:16.019Z,13.58
2018-09-18T02:23:48.704Z,12.60
2018-09-18T02:26:21.439Z,12.55
2018-09-18T02:28:54.070Z,12.70
2018-09-18T02:31:26.778Z,12.07
2018-09-18T02:33:59.424Z,11.35
2018-09-18T02:36:32.076Z,12.80
2018-09-18T02:39:08.743Z,12.03
2018-09-18T02:41:42.293Z,12.58
2018-09-18T02:44:15.843Z,11.78
2018-09-18T02:46:48.704Z,11.85
2018-09-18T02:49:21.649Z,12.95
2018-09-18T02:51:54.451Z,11.95
2018-09-18T02:54:27.184Z,14.70
2018-09-18T02:56:59.972Z,10.90
2018-09-18T02:59:32.831Z,13.08
2018-09-18T03:02:06.470Z,11.73
2018-09-18T03:04:39.403Z,11.95
2018-09-18T03:07:12.214Z,12.23
2018-09-18T03:09:44.992Z,11.95
2018-09-18T03:12:18.319Z,10.55
2018-09-18T03:14:51.252Z,11.08
2018-09-18T03:17:23.907Z,11.30
2018-09-18T03:19:57.183Z,10.70
2018-09-18T03:22:29.860Z,11.25
2018-09-18T03:25:03.311Z,10.15
2018-09-18T03:27:35.970Z,9.23
2018-09-18T03:30:08.648Z,9.13
2018-09-18T03:32:41.358Z,8.65
2018-09-18T03:35:14.140Z,9.08
2018-09-18T03:37:46.821Z,9.65
2018-09-18T03:40:19.490Z,8.85
2018-09-18T03:42:52.773Z,8.85
2018-09-18T03:45:25.422Z,8.18
2018-09-18T03:47:58.056Z,8.88
2018-09-18T03:50:32.094Z,8.50
2018-09-18T03:53:04.745Z,10.15
2018-09-18T03:55:37.385Z,10.78
2018-09-18T03:58:10.049Z,11.90
2018-09-18T04:00:42.724Z,11.33
2018-09-18T04:03:15.394Z,11.57
2018-09-18T04:05:48.089Z,11.97
2018-09-18T04:08:20.961Z,11.57
2018-09-18T04:10:53.677Z,12.50
2018-09-18T04:13:26.439Z,12.88
2018-09-18T04:15:59.164Z,13.18
2018-09-18T04:18:32.557Z,13.50
2018-09-18T04:21:05.405Z,14.15
2018-09-18T04:23:38.262Z,13.15
2018-09-18T04:26:17.015Z,15.25
2018-09-18T04:28:49.723Z,14.13
2018-09-18T04:31:28.655Z,14.58
2018-09-18T04:34:01.491Z,16.73
2018-09-18T04:36:36.164Z,15.00
2018-09-18T04:39:12.353Z,17.32
2018-09-18T04:41:45.228Z,17.27
2018-09-18T04:44:18.647Z,17.27
2018-09-18T04:46:51.402Z,19.00
2018-09-18T04:49:24.200Z,20.08
2018-09-18T04:51:57.115Z,22.00
2018-09-18T04:54:29.943Z,19.10
2018-09-18T04:57:05.741Z,19.35
2018-09-18T04:59:42.407Z,21.87
2018-09-18T05:02:15.125Z,23.47
2018-09-18T05:04:47.858Z,24.37
2018-09-18T05:07:20.539Z,23.10
2018-09-18T05:09:53.222Z,23.85
2018-09-18T05:12:26.042Z,23.90
2018-09-18T05:14:58.756Z,25.27
2018-09-18T05:17:31.698Z,25.48
2018-09-18T05:20:05.366Z,24.55
2018-09-18T05:22:38.149Z,24.75
2018-09-18T05:25:10.857Z,25.75
2018-09-18T05:27:43.508Z,25.35
2018-09-18T05:30:16.248Z,26.93
2018-09-18T05:32:48.950Z,28.12
2018-09-18T05:35:21.726Z,28.10
2018-09-18T05:37:54.459Z,27.55
2018-09-18T05:40:27.161Z,27.50
2018-09-18T05:42:59.882Z,27.20
2018-09-18T05:45:32.676Z,26.85
2018-09-18T05:48:05.449Z,27.75
2018-09-18T05:50:42.967Z,27.95
2018-09-18T05:53:15.600Z,29.63
2018-09-18T05:55:48.289Z,29.45
2018-09-18T05:58:21.054Z,28.02
2018-09-18T06:00:53.826Z,28.38
2018-09-18T06:03:26.577Z,27.90
2018-09-18T06:05:59.536Z,27.27
2018-09-18T06:08:32.232Z,26.37
2018-09-18T06:11:04.936Z,23.65
2018-09-18T06:13:37.566Z,24.60
2018-09-18T06:16:10.659Z,23.32
2018-09-18T06:18:43.401Z,22.67
2018-09-18T06:21:16.066Z,21.02
2018-09-18T06:23:48.844Z,21.27
2018-09-18T06:26:21.783Z,22.10
2018-09-18T06:28:54.554Z,21.17
2018-09-18T06:31:27.326Z,20.08
2018-09-18T06:34:00.695Z,18.45
2018-09-18T06:36:33.597Z,18.92
2018-09-18T06:39:08.240Z,18.05
2018-09-18T06:41:41.311Z,16.87
2018-09-18T06:44:14.132Z,16.93
2018-09-18T06:46:47.221Z,16.02
2018-09-18T06:49:21.732Z,15.95
2018-09-18T06:51:54.648Z,16.07
2018-09-18T06:54:27.507Z,14.73
2018-09-18T06:57:00.292Z,15.90
2018-09-18T06:59:33.641Z,14.35
2018-09-18T07:02:06.554Z,13.70
2018-09-18T07:04:39.578Z,13.78
2018-09-18T07:07:12.416Z,13.40
2018-09-18T07:09:45.186Z,13.38
2018-09-18T07:12:17.932Z,12.70
2018-09-18T07:14:50.807Z,12.88
2018-09-18T07:17:23.658Z,12.82
2018-09-18T07:19:56.532Z,13.58
2018-09-18T07:22:29.379Z,13.38
2018-09-18T07:25:02.232Z,11.68
2018-09-18T07:27:35.216Z,11.48
2018-09-18T07:30:08.891Z,11.68
2018-09-18T07:32:41.689Z,10.68
2018-09-18T07:35:14.491Z,10.63
2018-09-18T07:37:47.179Z,11.15
2018-09-18T07:40:19.983Z,9.55
2018-09-18T07:42:52.866Z,10.70
2018-09-18T07:45:26.526Z,9.73
2018-09-18T07:47:59.238Z,8.25
2018-09-18T07:50:31.929Z,9.73
2018-09-18T07:53:04.946Z,8.15
2018-09-18T07:55:37.690Z,7.47
2018-09-18T07:58:10.364Z,8.48
2018-09-18T08:00:43.083Z,7.90
2018-09-18T08:03:15.819Z,8.03
2018-09-18T08:05:49.218Z,8.03
2018-09-18T08:08:22.165Z,7.30
2018-09-18T08:10:55.974Z,7.83
2018-09-18T08:13:28.655Z,7.55
2018-09-18T08:16:01.407Z,7.42
2018-09-18T08:18:34.047Z,6.65
2018-09-18T08:21:06.795Z,7.08
2018-09-18T08:23:39.487Z,6.65
2018-09-18T08:26:12.326Z,7.55
2018-09-18T08:28:44.988Z,7.87
2018-09-18T08:31:17.663Z,7.10
2018-09-18T08:33:50.392Z,5.83
2018-09-18T08:36:23.007Z,6.42
2018-09-18T08:38:55.708Z,6.20
2018-09-18T08:41:28.503Z,5.87
2018-09-18T08:44:01.264Z,6.08
2018-09-18T08:46:34.393Z,5.67
2018-09-18T08:49:08.627Z,5.53
2018-09-18T08:51:41.431Z,5.40
2018-09-18T08:54:14.177Z,5.90
2018-09-18T08:56:46.851Z,5.45
2018-09-18T08:59:19.655Z,5.42
2018-09-18T09:01:52.713Z,5.90
2018-09-18T09:04:27.769Z,5.58
2018-09-18T09:07:01.347Z,5.20
2018-09-18T09:09:33.992Z,5.70
2018-09-18T09:12:06.758Z,6.12
2018-09-18T09:14:39.511Z,6.20
2018-09-18T09:17:12.273Z,6.15
2018-09-18T09:19:44.996Z,6.15
2018-09-18T09:22:17.780Z,5.90
2018-09-18T09:24:50.770Z,5.47
2018-09-18T09:27:23.541Z,6.37
2018-09-18T09:29:58.389Z,6.05
2018-09-18T09:32:31.146Z,6.00
2018-09-18T09:35:19.409Z,6.55
2018-09-18T09:37:57.823Z,6.40
2018-09-18T09:40:30.684Z,6.05
2018-09-18T09:43:22.447Z,5.30
2018-09-18T09:45:55.610Z,7.00
2018-09-18T09:49:03.863Z,5.95
2018-09-18T09:51:39.162Z,7.50
2018-09-18T09:54:11.869Z,7.10
2018-09-18T09:56:45.162Z,6.62
2018-09-18T09:59:42.036Z,7.37
2018-09-18T10:02:35.598Z,6.95
2018-09-18T10:06:30.682Z,6.95
2018-09-18T10:09:06.188Z,7.95
2018-09-18T10:11:43.514Z,8.93
2018-09-18T10:14:16.239Z,7.35
2018-09-18T10:16:49.255Z,7.62
2018-09-18T10:19:22.089Z,8.30
2018-09-18T10:21:55.846Z,6.92
2018-09-18T10:24:28.588Z,6.30
2018-09-18T10:29:58.867Z,6.58
2018-09-18T10:32:31.679Z,6.42
2018-09-18T10:35:05.140Z,5.92
2018-09-18T10:37:37.815Z,6.70
2018-09-18T10:40:10.518Z,6.58
2018-09-18T10:42:43.153Z,7.67
2018-09-18T10:45:15.880Z,7.05
2018-09-18T10:47:48.538Z,8.13
2018-09-18T10:50:21.554Z,7.72
2018-09-18T10:52:54.266Z,7.45
2018-09-18T10:55:27.070Z,7.45
2018-09-18T10:57:59.723Z,7.80
2018-09-18T11:00:32.945Z,10.40
2018-09-18T11:03:05.767Z,11.33
2018-09-18T11:05:39.034Z,11.18
2018-09-18T11:53:41.847Z,4.33
2018-09-18T11:56:14.608Z,4.45
2018-09-18T11:58:47.945Z,4.20
2018-09-18T12:01:21.714Z,5.03
2018-09-18T12:03:54.494Z,4.75
2018-09-18T12:06:27.179Z,4.55
2018-09-18T12:08:59.895Z,4.08
2018-09-18T12:11:32.862Z,2.83
2018-09-18T12:14:05.674Z,2.50
2018-09-18T12:16:38.335Z,2.75
2018-09-18T12:19:12.102Z,2.65
2018-09-18T12:21:44.792Z,2.42
2018-09-18T12:24:17.508Z,2.42
2018-09-18T12:26:50.289Z,2.85
2018-09-18T12:29:23.047Z,2.95
2018-09-18T12:31:56.701Z,2.45
2018-09-18T12:34:29.333Z,3.52
2018-09-18T12:37:01.990Z,2.12
2018-09-18T17:45:00.880Z,3.87
2018-09-18T17:47:34.997Z,4.05
2018-09-18T17:50:07.820Z,5.00
2018-09-18T17:52:40.546Z,4.67
2018-09-18T17:55:14.766Z,3.83
2018-09-18T17:57:49.089Z,4.45
2018-09-18T18:00:22.822Z,4.00
2018-09-18T18:02:56.151Z,4.22
2018-09-18T18:05:29.856Z,4.30
2018-09-18T18:08:04.310Z,4.28
2018-09-18T18:10:38.130Z,5.12
2018-09-18T18:13:11.679Z,4.30
2018-09-18T18:15:45.173Z,4.75
2018-09-18T18:18:17.937Z,4.50
2018-09-18T18:20:51.309Z,5.70
2018-09-18T18:23:27.933Z,4.45
2018-09-18T18:26:03.438Z,5.80
2018-09-18T18:28:38.611Z,5.00
2018-09-18T18:31:14.068Z,6.28
2018-09-18T18:33:46.877Z,5.17
2018-09-18T18:36:19.726Z,5.95
2018-09-18T18:38:53.977Z,5.97
2018-09-18T18:41:27.775Z,5.45
2018-09-18T18:44:02.806Z,5.33
2018-09-18T18:46:36.562Z,6.55
2018-09-18T18:49:09.551Z,5.87
2018-09-18T18:51:42.440Z,6.15
2018-09-18T18:54:15.867Z,5.78
2018-09-18T18:56:48.675Z,5.62
2018-09-18T18:59:22.069Z,6.17
2018-09-18T19:01:55.097Z,6.92
2018-09-18T19:07:06.493Z,7.55
2018-09-18T19:09:39.419Z,7.00
2018-09-18T19:12:13.380Z,6.80
2018-09-18T19:14:46.287Z,7.35
2018-09-18T19:17:21.565Z,7.80
2018-09-18T19:19:54.488Z,7.80
2018-09-18T19:22:27.545Z,8.38
2018-09-18T19:25:00.526Z,8.25
2018-09-18T19:27:33.797Z,7.53
2018-09-18T19:30:07.155Z,7.92
2018-09-18T19:32:40.958Z,8.33
2018-09-18T19:35:13.972Z,7.15
2018-09-18T19:37:47.406Z,7.00
2018-09-18T19:40:21.235Z,7.28
2018-09-18T19:42:54.883Z,8.28
2018-09-18T19:45:27.999Z,7.90
2018-09-18T19:48:01.481Z,7.33
2018-09-18T19:50:35.308Z,6.50
2018-09-18T19:53:08.235Z,6.90
2018-09-18T19:55:41.178Z,6.00
2018-09-18T19:58:14.018Z,5.42
2018-09-18T20:00:47.106Z,5.33
2018-09-18T20:03:20.850Z,5.55
2018-09-18T20:05:55.515Z,5.00
2018-09-18T20:08:28.298Z,4.10
2018-09-18T20:11:01.429Z,4.58
2018-09-18T20:13:34.167Z,5.05
2018-09-18T20:16:06.918Z,4.70
2018-09-18T20:18:40.285Z,4.58
2018-09-18T20:21:13.092Z,5.42
2018-09-18T20:23:46.505Z,4.20
2018-09-18T20:26:19.155Z,4.87
2018-09-18T20:28:52.439Z,5.05
2018-09-18T20:31:25.458Z,4.25
2018-09-18T20:33:58.513Z,5.20
2018-09-18T20:36:31.667Z,5.15
2018-09-18T20:39:06.558Z,5.83
2018-09-18T20:41:40.065Z,5.15
2018-09-18T20:44:12.769Z,5.60
2018-09-18T20:46:45.450Z,4.75
2018-09-18T20:49:19.015Z,5.67
2018-09-18T20:51:51.710Z,4.58
2018-09-18T20:54:24.549Z,4.70
2018-09-18T20:56:57.223Z,4.97
2018-09-18T20:59:31.460Z,4.40
2018-09-18T21:02:04.564Z,5.17
2018-09-18T21:04:37.364Z,4.90
2018-09-18T21:07:10.148Z,4.62
2018-09-18T21:09:43.916Z,5.33
2018-09-18T21:12:16.536Z,4.92
2018-09-18T21:14:49.248Z,4.67
2018-09-18T21:17:22.651Z,4.33
2018-09-18T21:19:55.649Z,4.87
2018-09-18T21:22:28.247Z,4.45
2018-09-18T21:25:18.362Z,6.08
2018-09-18T21:27:51.053Z,4.97
2018-09-18T21:30:23.771Z,5.28
2018-09-18T21:32:56.432Z,4.62
2018-09-18T21:35:29.084Z,4.83
2018-09-18T21:38:01.787Z,4.67
2018-09-18T21:40:34.458Z,4.12
2018-09-18T21:43:07.093Z,6.22
2018-09-18T21:45:39.793Z,4.95
2018-09-18T21:48:12.420Z,4.97
2018-09-18T21:50:46.396Z,5.75
2018-09-18T21:53:19.117Z,4.80
2018-09-18T21:55:51.779Z,4.80
2018-09-18T21:58:24.484Z,4.50
2018-09-18T22:00:57.568Z,4.60
2018-09-18T22:03:30.365Z,4.75
2018-09-18T22:06:04.443Z,5.17
2018-09-18T22:08:37.067Z,6.65
2018-09-18T22:11:09.797Z,4.80
2018-09-18T22:13:42.489Z,4.50
2018-09-18T22:16:15.105Z,5.05
2018-09-18T22:18:47.986Z,5.25
2018-09-18T22:21:21.037Z,5.85
2018-09-18T22:23:54.266Z,5.90
2018-09-18T22:26:27.034Z,5.42
2018-09-18T22:29:00.579Z,6.47
2018-09-18T22:31:33.235Z,5.65
2018-09-18T22:34:05.973Z,5.53
2018-09-18T22:36:38.723Z,5.58
2018-09-18T22:39:11.319Z,5.50
2018-09-18T22:41:44.003Z,4.97
2018-09-18T22:44:16.615Z,6.65
2018-09-18T22:46:49.279Z,6.20
2018-09-18T22:49:22.109Z,7.00
2018-09-18T22:51:54.801Z,6.15
2018-09-18T22:54:27.509Z,7.30
2018-09-18T22:57:00.145Z,7.22
2018-09-18T22:59:32.767Z,6.97
2018-09-18T23:02:05.531Z,5.95
2018-09-18T23:04:38.445Z,4.80
2018-09-18T23:07:11.770Z,6.60
2018-09-18T23:09:44.527Z,6.45
2018-09-18T23:12:17.160Z,6.47
2018-09-18T23:14:50.140Z,5.60
2018-09-18T23:17:22.859Z,5.45
2018-09-18T23:19:55.499Z,6.45
2018-09-18T23:22:28.257Z,6.10
2018-09-18T23:25:00.887Z,6.08
2018-09-18T23:27:33.496Z,6.40
2018-09-18T23:30:06.136Z,6.87
2018-09-18T23:32:38.769Z,6.80
2018-09-18T23:35:11.403Z,6.17
2018-09-18T23:37:43.973Z,6.37
2018-09-18T23:40:16.609Z,6.15
2018-09-18T23:42:49.302Z,6.65
2018-09-18T23:45:22.049Z,6.97
2018-09-18T23:47:54.769Z,6.60
2018-09-18T23:50:27.490Z,6.72
2018-09-18T23:53:00.156Z,6.10
2018-09-18T23:55:32.788Z,7.95
2018-09-18T23:58:05.526Z,6.85
